createdAt,value
2022-11-14T00:00:16.212Z,45.80
2022-11-14T00:05:42.695Z,48.80
2022-11-14T00:10:50.713Z,45.20
2022-11-14T00:15:54.674Z,54.00
2022-11-14T00:20:58.272Z,49.30
2022-11-14T00:26:01.615Z,43.70
2022-11-14T00:31:05.145Z,50.00
2022-11-14T00:36:08.980Z,48.30
2022-11-14T00:41:12.915Z,56.20
2022-11-14T00:46:16.875Z,36.70
2022-11-14T00:51:20.661Z,44.80
2022-11-14T00:56:24.064Z,48.70
2022-11-14T01:01:27.858Z,45.70
2022-11-14T01:06:31.417Z,45.50
2022-11-14T01:11:34.964Z,46.60
2022-11-14T01:16:38.646Z,43.30
2022-11-14T01:21:42.081Z,48.50
2022-11-14T01:26:45.887Z,40.40
2022-11-14T01:31:49.490Z,50.10
2022-11-14T01:36:52.823Z,44.50
2022-11-14T01:41:56.204Z,38.20
2022-11-14T01:46:59.394Z,47.40
2022-11-14T01:52:10.324Z,37.70
2022-11-14T01:57:18.012Z,44.90
2022-11-14T02:02:25.244Z,50.10
2022-11-14T02:07:32.778Z,53.70
2022-11-14T02:12:36.491Z,42.90
2022-11-14T02:17:40.944Z,47.20
2022-11-14T02:22:44.464Z,46.00
2022-11-14T02:27:48.025Z,47.80
2022-11-14T02:33:10.185Z,49.00
2022-11-14T02:38:15.047Z,50.10
2022-11-14T02:43:18.630Z,42.20
2022-11-14T02:48:21.878Z,53.50
2022-11-14T02:53:25.498Z,46.30
2022-11-14T02:58:29.667Z,54.80
2022-11-14T03:03:33.170Z,44.70
2022-11-14T03:08:36.322Z,43.80
2022-11-14T03:13:40.080Z,49.90
2022-11-14T03:18:43.745Z,45.10
2022-11-14T03:23:47.561Z,37.90
2022-11-14T03:28:50.785Z,49.60
2022-11-14T03:33:54.649Z,52.80
2022-11-14T03:38:58.535Z,43.60
2022-11-14T03:44:02.193Z,52.90
2022-11-14T03:49:05.694Z,47.30
2022-11-14T03:54:09.173Z,41.70
2022-11-14T03:59:12.842Z,48.20
2022-11-14T04:04:16.689Z,49.70
2022-11-14T04:09:20.261Z,35.40
2022-11-14T04:14:23.866Z,44.30
2022-11-14T04:19:27.532Z,49.80
2022-11-14T04:24:31.254Z,43.00
2022-11-14T04:29:34.744Z,52.80
2022-11-14T04:34:38.292Z,34.30
2022-11-14T04:39:41.706Z,43.90
2022-11-14T04:44:44.939Z,45.70
2022-11-14T04:49:48.377Z,42.20
2022-11-14T04:54:52.170Z,50.10
2022-11-14T04:59:55.831Z,46.40
2022-11-14T05:04:59.358Z,38.60
2022-11-14T05:10:03.242Z,54.30
2022-11-14T05:15:06.780Z,49.40
2022-11-14T05:20:11.196Z,46.70
2022-11-14T05:25:14.808Z,39.00
2022-11-14T05:30:19.205Z,43.00
2022-11-14T05:35:22.745Z,48.70
2022-11-14T05:40:26.196Z,52.50
2022-11-14T05:45:31.618Z,52.10
2022-11-14T05:50:35.273Z,54.10
2022-11-14T05:55:39.915Z,49.80
2022-11-14T06:00:52.039Z,51.70
2022-11-14T06:05:59.904Z,48.10
2022-11-14T06:11:07.684Z,57.50
2022-11-14T06:21:19.508Z,41.00
2022-11-14T06:26:31.793Z,43.90
2022-11-14T06:31:35.467Z,47.80
2022-11-14T06:36:39.321Z,55.10
2022-11-14T06:41:42.655Z,52.10
2022-11-14T06:46:46.067Z,51.50
2022-11-14T06:51:49.316Z,44.00
2022-11-14T06:56:53.012Z,57.90
2022-11-14T07:01:58.983Z,50.40
2022-11-14T07:07:04.038Z,57.70
2022-11-14T07:12:09.372Z,55.70
2022-11-14T07:17:13.418Z,52.90
2022-11-14T07:22:17.137Z,55.40
2022-11-14T07:27:20.903Z,42.70
2022-11-14T07:32:25.207Z,40.40
2022-11-14T07:37:28.606Z,57.60
2022-11-14T07:42:32.231Z,45.30
2022-11-14T07:47:35.946Z,46.90
2022-11-14T07:52:40.001Z,49.30
2022-11-14T07:57:48.960Z,43.80
2022-11-14T08:02:53.354Z,50.80
2022-11-14T08:07:57.009Z,38.50
2022-11-14T08:13:30.490Z,48.40
2022-11-14T08:18:26.718Z,48.20
2022-11-14T08:23:30.388Z,48.20
2022-11-14T08:28:36.431Z,42.40
2022-11-14T08:33:40.323Z,41.60
2022-11-14T08:38:43.817Z,56.60
2022-11-14T08:43:47.343Z,46.20
2022-11-14T08:48:50.932Z,51.50
2022-11-14T08:53:54.458Z,50.80
2022-11-14T08:58:58.604Z,45.20
2022-11-14T09:04:02.657Z,40.40
2022-11-14T09:09:06.669Z,46.30
2022-11-14T09:14:10.815Z,37.90
2022-11-14T09:19:14.673Z,42.50
2022-11-14T09:24:18.352Z,50.80
2022-11-14T09:29:22.027Z,43.60
2022-11-14T09:34:26.021Z,45.30
2022-11-14T09:39:30.113Z,37.50
2022-11-14T09:44:58.112Z,48.20
2022-11-14T09:50:13.870Z,41.40
2022-11-14T09:55:22.227Z,45.20
2022-11-14T10:00:51.939Z,49.40
2022-11-14T10:06:04.635Z,55.10
2022-11-14T10:11:24.823Z,46.80
2022-11-14T10:16:31.804Z,45.80
2022-11-14T10:21:41.335Z,41.20
2022-11-14T10:27:07.169Z,39.80
2022-11-14T10:32:34.824Z,38.80
2022-11-14T10:37:42.255Z,39.00
2022-11-14T10:42:51.746Z,47.80
2022-11-14T10:48:03.348Z,45.10
2022-11-14T10:53:20.499Z,38.90
2022-11-14T10:58:24.694Z,43.20
2022-11-14T11:03:46.962Z,37.30
2022-11-14T11:09:10.141Z,42.50
2022-11-14T11:14:19.304Z,39.00
2022-11-14T11:19:26.860Z,41.20
2022-11-14T11:24:35.899Z,38.90
2022-11-14T11:29:39.647Z,34.50
2022-11-14T11:34:43.482Z,48.50
2022-11-14T11:39:54.403Z,36.30
2022-11-14T11:45:06.297Z,49.50
2022-11-14T11:50:17.162Z,47.30
2022-11-14T11:55:49.971Z,43.00
2022-11-14T12:00:57.528Z,44.80
2022-11-14T12:06:16.119Z,51.30
2022-11-14T12:11:24.495Z,45.30
2022-11-14T12:16:37.141Z,54.40
2022-11-14T12:22:23.210Z,53.70
2022-11-14T12:27:52.356Z,46.90
2022-11-14T12:33:22.274Z,51.90
2022-11-14T12:38:30.938Z,44.10
2022-11-14T12:43:38.001Z,44.10
2022-11-14T12:48:46.859Z,36.30
2022-11-14T12:53:50.196Z,40.60
2022-11-14T12:59:00.665Z,46.70
2022-11-14T13:04:10.110Z,45.80
2022-11-14T13:09:35.229Z,43.50
2022-11-14T13:15:14.650Z,40.30
2022-11-14T13:20:48.726Z,43.70
2022-11-14T13:26:11.366Z,40.90
2022-11-14T13:31:22.044Z,42.50
2022-11-14T13:36:43.150Z,44.50
2022-11-14T13:42:06.038Z,51.50
2022-11-14T13:47:20.826Z,41.00
2022-11-14T13:52:32.600Z,48.90
2022-11-14T13:57:58.347Z,42.50
2022-11-14T14:03:20.679Z,41.90
2022-11-14T14:08:27.301Z,32.10
2022-11-14T14:14:02.342Z,44.10
2022-11-14T14:19:25.846Z,39.80
2022-11-14T14:24:36.606Z,40.20
2022-11-14T14:29:53.919Z,40.40
2022-11-14T14:35:00.012Z,39.70
2022-11-14T14:40:08.949Z,49.30
2022-11-14T14:45:19.541Z,51.20
2022-11-14T14:50:26.169Z,58.00
2022-11-14T14:55:34.998Z,51.40
2022-11-14T15:00:39.792Z,50.20
2022-11-14T15:05:47.627Z,52.40
2022-11-14T15:10:59.177Z,53.60
2022-11-14T15:16:08.555Z,53.20
2022-11-14T15:21:29.513Z,48.10
2022-11-14T15:26:37.988Z,54.90
2022-11-14T15:31:51.225Z,47.40
2022-11-14T15:37:14.299Z,42.30
2022-11-14T15:42:37.256Z,44.80
2022-11-14T15:47:43.203Z,38.30
2022-11-14T15:52:58.451Z,38.20
2022-11-14T16:03:28.839Z,36.90
2022-11-14T16:08:34.200Z,48.20
2022-11-14T16:13:40.274Z,55.90
2022-11-14T16:18:45.276Z,47.20
2022-11-14T16:23:50.703Z,55.50
2022-11-14T16:28:54.277Z,49.90
2022-11-14T16:33:59.191Z,49.90
2022-11-14T16:39:06.855Z,53.10
2022-11-14T16:44:16.187Z,43.50
2022-11-14T16:49:22.867Z,49.40
2022-11-14T16:54:27.121Z,49.30
2022-11-14T16:59:30.735Z,48.80
2022-11-14T17:04:34.164Z,50.10
2022-11-14T17:09:38.869Z,52.80
2022-11-14T17:14:43.775Z,55.20
2022-11-14T17:19:48.877Z,53.20
2022-11-14T17:24:52.973Z,56.80
2022-11-14T17:29:56.823Z,55.00
2022-11-14T17:35:01.007Z,55.80
2022-11-14T17:40:05.823Z,63.70
2022-11-14T17:45:10.811Z,60.50
2022-11-14T17:50:15.142Z,51.80
2022-11-14T17:55:19.563Z,68.90
2022-11-14T18:00:23.843Z,44.10
2022-11-14T18:05:27.899Z,75.50
2022-11-14T18:10:32.929Z,56.80
2022-11-14T18:15:39.312Z,59.50
2022-11-14T18:20:43.888Z,53.90
2022-11-14T18:25:51.759Z,59.50
2022-11-14T18:30:57.091Z,71.60
2022-11-14T18:36:01.680Z,80.40
2022-11-14T18:41:09.699Z,69.00
2022-11-14T18:46:19.495Z,69.80
2022-11-14T18:51:27.958Z,74.60
2022-11-14T18:56:31.476Z,71.80
2022-11-14T19:01:35.646Z,65.40
2022-11-14T19:06:41.154Z,74.10
2022-11-14T19:12:04.501Z,64.10
2022-11-14T19:17:08.374Z,72.00
2022-11-14T19:22:11.711Z,68.70
2022-11-14T19:27:15.421Z,66.60
2022-11-14T19:32:19.069Z,60.30
2022-11-14T19:37:22.700Z,58.30
2022-11-14T19:42:26.618Z,68.60
2022-11-14T19:47:30.217Z,71.70
2022-11-14T19:52:33.765Z,61.00
2022-11-14T19:57:38.524Z,70.40
2022-11-14T20:02:46.534Z,67.80
2022-11-14T20:12:53.403Z,62.30
2022-11-14T20:17:57.591Z,56.90
2022-11-14T20:23:01.504Z,55.10
2022-11-14T20:28:09.598Z,53.20
2022-11-14T20:33:13.160Z,71.80
2022-11-14T20:38:16.811Z,51.00
2022-11-14T20:43:20.539Z,72.60
2022-11-14T20:48:24.640Z,60.10
2022-11-14T20:53:28.258Z,58.10
2022-11-14T20:58:33.014Z,63.90
2022-11-14T21:03:37.233Z,53.40
2022-11-14T21:08:42.375Z,60.00
2022-11-14T21:13:58.211Z,71.10
2022-11-14T21:19:02.863Z,71.50
2022-11-14T21:24:07.976Z,59.90
2022-11-14T21:29:16.580Z,60.20
2022-11-14T21:34:21.614Z,65.10
2022-11-14T21:39:25.159Z,60.40
2022-11-14T21:44:28.955Z,46.20
2022-11-14T21:49:32.492Z,69.90
2022-11-14T21:54:36.145Z,77.40
2022-11-14T21:59:46.950Z,66.40
2022-11-14T22:04:50.452Z,64.10
2022-11-14T22:09:54.347Z,66.80
2022-11-14T22:14:58.112Z,51.20
2022-11-14T22:20:01.508Z,69.40
2022-11-14T22:25:05.896Z,48.30
2022-11-14T22:30:10.065Z,58.50
2022-11-14T22:35:13.512Z,70.00
2022-11-14T22:40:16.992Z,65.40
2022-11-14T22:45:20.632Z,64.10
2022-11-14T22:50:23.834Z,56.20
2022-11-14T22:55:27.269Z,60.70
2022-11-14T23:00:30.512Z,50.80
2022-11-14T23:05:38.270Z,51.80
2022-11-14T23:15:48.749Z,59.10
2022-11-14T23:20:53.251Z,49.30
2022-11-14T23:25:56.736Z,60.30
2022-11-14T23:31:01.523Z,62.40
2022-11-14T23:36:05.778Z,63.50
2022-11-14T23:41:21.403Z,49.80
2022-11-14T23:46:25.014Z,58.90
2022-11-14T23:51:28.506Z,57.80
2022-11-14T23:56:32.422Z,55.70
